Latest Weather Observations for Maryborough

IDQ60801

Issued at 6:42 pm EST Tuesday 22 October 2019 (issued every 10 minutes, with the page automatically refreshed every 10 minutes)

About weather observations | Map of weather stations | Latest weather observations for QLD | Other Formats
Station Details ID: 040126 Name: MARYBOROUGH Lat: -25.51 Lon: 152.72 Height: 8.98 m
Data from the previous 72 hours. | See also: Recent months at Maryborough
Date/Time
EST
Temp
°C
App
Temp
°C
Dew
Point
°C
Rel
Hum
%
Delta-T
°C
Wind Press
QNH
hPa
Press
MSL
hPa
Rain since
9am
mm
Dir  Spd
km/h
Gust
km/h
Spd
kts
Gust
kts
22/06:30pm 19.7 17.9 12.0 61 4.3 ESE 13 17 7 9 1022.9 1022.8 0.0
22/06:00pm 20.5 18.7 12.0 58 4.7 ESE 13 20 7 11 1022.6 1022.5 0.0
22/05:30pm 21.7 18.5 12.0 54 5.4 ESE 20 28 11 15 1022.0 1021.9 0.0
22/05:00pm 22.4 18.3 11.5 50 6.1 ESE 24 32 13 17 1021.6 1021.5 0.0
22/04:30pm 23.1 19.7 11.2 47 6.6 ESE 20 32 11 17 1021.2 1021.1 0.0
22/04:00pm 23.8 20.3 10.8 44 7.2 ESE 20 30 11 16 1020.9 1020.8 0.0
22/03:30pm 24.6 20.6 10.5 41 7.8 ESE 22 35 12 19 1020.9 1020.8 0.0
22/03:00pm 24.6 20.7 10.8 42 7.7 ESE 22 33 12 18 1020.9 1020.8 0.0
22/02:30pm 25.0 21.0 8.9 36 8.7 ESE 20 32 11 17 1021.1 1021.0 0.0
22/02:00pm 25.2 21.1 8.7 35 8.9 ESE 20 35 11 19 1021.2 1021.1 0.0
22/01:30pm 25.3 21.2 8.7 35 9.0 ESE 20 35 11 19 1021.3 1021.2 0.0
22/01:00pm 26.1 21.9 11.1 39 8.4 SE 24 35 13 19 1021.7 1021.6 0.0
22/12:30pm 24.3 19.8 8.7 37 8.4 ESE 22 32 12 17 1022.3 1022.2 0.0
22/12:00pm 25.0 21.4 9.7 38 8.4 ESE 19 30 10 16 1022.5 1022.4 0.0
22/11:30am 24.8 21.1 7.9 34 9.0 ESE 17 30 9 16 1022.7 1022.6 0.0
22/11:00am 24.8 21.0 9.1 37 8.5 SE 19 30 10 16 1023.1 1023.0 0.0
22/10:30am 24.4 22.2 12.0 46 7.1 SE 15 24 8 13 1023.6 1023.5 0.0
22/10:00am 23.8 20.0 9.8 41 7.6 SE 20 32 11 17 1024.0 1023.9 0.0
22/09:30am 24.5 21.4 11.5 44 7.3 SE 19 28 10 15 1024.1 1024.0 0.0
22/09:00am 23.6 20.8 11.3 46 6.9 SE 17 28 9 15 1024.3 1024.2 0.0
22/08:30am 22.2 18.8 11.3 50 6.1 SE 20 28 11 15 1024.3 1024.2 0.0
22/08:00am 21.3 19.2 13.5 61 4.5 SSE 17 22 9 12 1024.1 1024.0 0.0
22/07:30am 20.1 18.9 14.0 68 3.5 S 13 17 7 9 1024.1 1024.0 0.0
22/07:00am 17.9 15.3 12.1 69 3.2 S 17 20 9 11 1024.0 1023.9 0.0
22/06:30am 16.7 14.0 11.8 73 2.7 SSW 17 22 9 12 1023.8 1023.7 0.0
22/06:00am 15.1 14.0 11.9 81 1.7 SSW 9 13 5 7 1023.5 1023.4 0.0
22/05:30am 13.7 12.3 10.9 83 1.5 SSW 9 11 5 6 1023.3 1023.2 0.0
22/05:00am 13.2 11.7 10.7 85 1.3 SSW 9 13 5 7 1022.9 1022.8 0.0
22/04:30am 13.5 12.1 11.0 85 1.3 S 9 13 5 7 1022.7 1022.6 0.0
22/04:00am 13.4 12.1 11.3 87 1.1 SSW 9 13 5 7 1022.6 1022.5 0.0
22/03:30am 12.7 11.2 10.6 87 1.1 S 9 11 5 6 1022.5 1022.4 0.0
22/03:00am 13.2 11.4 10.7 85 1.3 S 11 13 6 7 1022.5 1022.4 0.0
22/02:30am 13.4 11.8 11.5 88 1.0 S 11 15 6 8 1022.6 1022.5 0.0
22/02:00am 12.5 10.9 10.2 86 1.2 S 9 13 5 7 1022.8 1022.7 0.0
22/01:30am 13.1 13.3 10.6 85 1.3 CALM 0 0 0 0 1023.2 1023.1 0.0
22/01:00am 13.3 12.1 10.3 82 1.5 SSW 7 7 4 4 1023.5 1023.4 0.0
22/12:30am 13.6 12.5 10.6 82 1.6 SSW 7 9 4 5 1023.8 1023.7 0.0
22/12:00am 13.2 11.7 10.4 83 1.4 S 9 13 5 7 1023.9 1023.8 0.0
 
Date/Time
EST
Temp
°C
App
Temp
°C
Dew
Point
°C
Rel
Hum
%
Delta-T
°C
Wind Press
QNH
hPa
Press
MSL
hPa
Rain since
9am
mm
Dir  Spd
km/h
Gust
km/h
Spd
kts
Gust
kts
21/11:30pm 13.8 12.1 9.8 77 2.1 SSE 9 11 5 6 1024.2 1024.1 0.0
21/11:00pm 14.4 12.9 10.6 78 2.0 S 9 11 5 6 1024.3 1024.2 0.0
21/10:30pm 14.7 13.6 10.5 76 2.2 S 7 9 4 5 1024.5 1024.4 0.0
21/10:00pm 15.2 13.8 10.8 75 2.3 S 9 11 5 6 1024.6 1024.5 0.0
21/09:30pm 15.4 14.4 10.4 72 2.6 SSE 6 7 3 4 1024.5 1024.4 0.0
21/09:00pm 15.9 14.1 10.9 72 2.7 SSE 11 13 6 7 1024.2 1024.1 0.0
21/08:30pm 16.7 14.6 11.0 69 3.1 SSE 13 15 7 8 1024.2 1024.1 0.0
21/08:00pm 17.5 15.5 11.5 68 3.2 SSE 13 17 7 9 1024.1 1024.0 0.0
21/07:30pm 17.4 15.7 11.2 67 3.4 SE 11 15 6 8 1024.0 1023.9 0.0
21/07:00pm 18.3 15.8 11.1 63 3.9 SE 15 20 8 11 1023.7 1023.6 0.0
21/06:30pm 19.1 15.8 10.9 59 4.5 SE 19 26 10 14 1023.3 1023.2 0.0
21/06:00pm 19.7 16.1 10.4 55 5.0 SE 20 28 11 15 1022.9 1022.8 0.0
21/05:30pm 20.9 14.8 10.4 51 5.7 SE 33 48 18 26 1022.4 1022.3 0.0
21/05:00pm 21.6 16.1 10.4 49 6.1 SE 30 43 16 23 1021.8 1021.7 0.0
21/04:40pm 21.9 15.9 10.1 47 6.4 SE 32 50 17 27 1021.6 1021.5 0.0
21/04:30pm 22.4 16.4 10.2 46 6.7 SE 32 43 17 23 1021.5 1021.4 0.0
21/04:00pm 23.1 18.0 10.5 45 6.9 ESE 28 37 15 20 1021.4 1021.3 0.0
21/03:30pm 23.4 18.4 11.1 46 6.9 ESE 28 39 15 21 1021.2 1021.1 0.0
21/03:00pm 24.0 19.9 11.3 45 7.1 ESE 24 39 13 21 1021.1 1021.0 0.0
21/02:30pm 24.1 18.8 11.1 44 7.3 ESE 30 43 16 23 1021.1 1021.0 0.0
21/02:00pm 25.1 20.4 12.0 44 7.5 ESE 28 41 15 22 1021.3 1021.2 0.0
21/01:30pm 25.7 21.1 12.2 43 7.8 ESE 28 44 15 24 1021.6 1021.5 0.0
21/01:00pm 24.9 19.3 11.5 43 7.6 SE 32 44 17 24 1021.7 1021.6 0.0
21/12:33pm 25.7 20.3 12.2 43 7.8 SE 32 50 17 27 1021.9 1021.8 0.0
21/12:30pm 26.0 21.5 13.8 47 7.2 SE 30 46 16 25 1021.9 1021.8 0.0
21/12:05pm 24.9 20.1 12.8 47 7.0 ESE 30 48 16 26 1022.1 1022.0 0.0
21/12:00pm 24.3 18.8 11.9 45 7.0 ESE 32 48 17 26 1022.2 1022.1 0.0
21/11:30am 24.8 19.4 12.1 45 7.3 SE 32 43 17 23 1022.4 1022.3 0.0
21/11:00am 24.6 19.2 12.2 46 7.1 SE 32 43 17 23 1022.7 1022.6 0.0
21/10:30am 25.3 21.2 15.0 53 6.2 SE 30 43 16 23 1022.8 1022.7 0.0
21/10:00am 24.2 18.6 13.4 51 6.3 SE 35 44 19 24 1023.0 1022.9 0.0
21/09:30am 24.8 20.1 14.3 52 6.2 SE 32 50 17 27 1023.0 1022.9 0.0
21/09:07am 25.1 21.4 14.9 53 6.1 ESE 28 46 15 25 1023.0 1022.9 0.0
21/09:00am 25.2 21.9 14.0 49 6.6 ESE 24 39 13 21 1023.0 1022.9 0.0
21/08:30am 24.7 21.9 14.2 52 6.2 ESE 22 33 12 18 1022.9 1022.8 0.0
21/08:00am 23.8 19.4 14.2 55 5.6 SE 30 44 16 24 1022.7 1022.6 0.0
21/07:30am 22.9 18.3 14.7 60 4.9 SE 32 46 17 25 1022.6 1022.5 0.0
21/07:29am 22.9 18.8 15.0 61 4.7 SE 30 46 16 25 1022.5 1022.4 0.0
21/07:00am 20.9 19.6 15.9 73 3.0 SE 17 22 9 12 1022.3 1022.2 0.0
21/06:30am 19.8 19.4 16.1 79 2.2 SSE 13 17 7 9 1022.2 1022.1 0.0
21/06:00am 18.5 17.5 15.7 84 1.6 SSE 15 19 8 10 1021.8 1021.7 0.0
21/05:30am 17.5 17.3 15.7 89 1.1 SSE 11 15 6 8 1021.5 1021.4 0.0
21/05:00am 17.2 16.4 15.2 88 1.2 S 13 15 7 8 1021.1 1021.0 0.0
21/04:30am 17.6 16.9 15.4 87 1.3 S 13 15 7 8 1020.7 1020.6 0.0
21/04:00am 18.2 17.2 15.5 84 1.6 S 15 20 8 11 1020.4 1020.3 0.0
21/03:30am 18.3 17.7 15.6 84 1.6 SSE 13 19 7 10 1020.2 1020.1 0.0
21/03:00am 18.4 17.4 15.6 84 1.6 SSE 15 17 8 9 1020.0 1019.9 0.0
21/02:30am 18.4 17.8 15.6 84 1.6 SSE 13 17 7 9 1020.0 1019.9 0.0
21/02:00am 18.7 17.8 15.8 83 1.7 SSE 15 20 8 11 1020.2 1020.1 0.0
21/01:30am 18.9 18.1 16.0 83 1.7 SSE 15 19 8 10 1020.2 1020.1 0.0
21/01:00am 18.9 18.8 16.0 83 1.7 SSE 11 17 6 9 1020.5 1020.4 0.0
21/12:30am 19.2 18.3 15.9 81 2.0 SSE 15 19 8 10 1020.7 1020.6 0.0
21/12:00am 19.5 17.9 16.0 80 2.1 SSE 19 24 10 13 1020.6 1020.5 0.0
 
Date/Time
EST
Temp
°C
App
Temp
°C
Dew
Point
°C
Rel
Hum
%
Delta-T
°C
Wind Press
QNH
hPa
Press
MSL
hPa
Rain since
9am
mm
Dir  Spd
km/h
Gust
km/h
Spd
kts
Gust
kts
20/11:30pm 19.5 17.9 16.0 80 2.1 S 19 24 10 13 1020.7 1020.6 0.0
20/11:00pm 19.5 18.7 16.0 80 2.1 SSE 15 20 8 11 1020.7 1020.6 0.0
20/10:30pm 19.6 18.4 16.1 80 2.1 SSE 17 22 9 12 1020.7 1020.6 0.0
20/10:00pm 19.7 18.5 16.2 80 2.1 S 17 22 9 12 1020.5 1020.4 0.0
20/09:30pm 19.8 19.0 16.1 79 2.2 SSE 15 19 8 10 1020.3 1020.2 0.0
20/09:00pm 20.2 19.4 16.2 78 2.4 SSE 15 19 8 10 1020.2 1020.1 0.0
20/08:30pm 20.6 19.9 16.4 77 2.5 SSE 15 22 8 12 1020.0 1019.9 0.0
20/08:00pm 20.3 20.4 16.5 79 2.3 SE 11 15 6 8 1019.7 1019.6 0.0
20/07:30pm 21.2 19.8 16.6 75 2.8 SE 19 26 10 14 1019.1 1019.0 0.0
20/07:00pm 21.5 20.6 16.9 75 2.8 SE 17 32 9 17 1018.6 1018.5 0.0
20/06:30pm 21.9 20.2 17.1 74 2.9 SE 22 30 12 16 1017.8 1017.7 0.0
20/06:00pm 22.4 19.4 16.9 71 3.4 SE 28 41 15 22 1017.4 1017.3 0.0
20/05:30pm 22.8 19.8 16.8 69 3.7 SE 28 44 15 24 1016.9 1016.8 0.0
20/05:00pm 23.7 20.4 17.0 66 4.1 SE 30 43 16 23 1016.3 1016.2 0.0
20/04:30pm 24.2 20.8 16.7 63 4.6 SE 30 46 16 25 1016.0 1015.9 0.0
20/04:00pm 24.7 20.1 14.5 53 6.1 ESE 32 48 17 26 1015.7 1015.6 0.0
20/03:31pm 25.4 21.6 14.8 52 6.3 ESE 28 46 15 25 1015.5 1015.4 0.0
20/03:30pm 25.4 21.3 14.8 52 6.3 ESE 30 46 16 25 1015.5 1015.4 0.0
20/03:00pm 26.7 21.3 13.8 45 7.6 SE 35 48 19 26 1015.2 1015.1 0.0
20/02:30pm 26.5 22.4 13.9 45 7.5 ESE 28 43 15 23 1015.1 1015.0 0.0
20/02:00pm 27.3 24.4 16.0 50 6.9 ESE 26 41 14 22 1015.1 1015.0 0.0
20/01:30pm 27.8 23.7 13.7 42 8.4 ESE 28 41 15 22 1015.3 1015.2 0.0
20/01:00pm 28.1 23.2 11.2 35 9.6 ESE 28 39 15 21 1015.3 1015.2 0.0
20/12:35pm 29.1 24.8 9.3 29 11.0 SSE 22 48 12 26 1015.5 1015.4 0.0
20/12:30pm 31.1 26.7 0.5 14 14.8 SSW 13 22 7 12 1015.2 1015.1 0.0
20/12:00pm 30.6 26.0 -0.9 13 14.9 S 13 24 7 13 1015.5 1015.4 0.0
20/11:30am 30.4 25.7 0.9 15 14.3 SSW 15 26 8 14 1015.6 1015.5 0.0
20/11:00am 29.8 26.2 5.1 21 12.8 SSE 13 19 7 10 1015.9 1015.8 0.0
20/10:30am 27.8 27.0 13.0 40 8.7 S 9 19 5 10 1016.5 1016.4 0.0
20/10:00am 26.4 26.1 14.5 48 7.1 SSE 9 15 5 8 1016.8 1016.7 0.0
20/09:30am 25.2 25.8 15.2 54 6.0 S 6 13 3 7 1017.0 1016.9 0.0
20/09:00am 24.2 25.0 15.9 59 5.0 SSW 6 13 3 7 1017.2 1017.1 31.2
20/08:30am 22.7 23.8 17.2 71 3.4 SSW 7 13 4 7 1017.1 1017.0 31.2
20/08:00am 21.2 22.0 17.2 78 2.4 WSW 9 15 5 8 1017.2 1017.1 31.2
20/07:44am 20.7 21.8 17.9 84 1.7 SSW 9 15 5 8 1017.1 1017.0 31.2
20/07:30am 19.9 20.6 17.9 88 1.2 SW 11 15 6 8 1017.1 1017.0 31.2
20/07:00am 19.2 20.3 17.9 92 0.8 WSW 9 11 5 6 1017.0 1016.9 31.2
20/06:30am 19.1 19.8 17.9 93 0.7 SW 11 17 6 9 1016.8 1016.7 31.2
20/06:00am 19.3 20.6 18.5 95 0.5 W 9 11 5 6 1016.4 1016.3 31.2
20/05:30am 19.4 21.2 18.7 96 0.4 WSW 7 13 4 7 1016.1 1016.0 31.2
20/05:00am 19.6 21.4 18.4 93 0.7 W 6 11 3 6 1015.9 1015.8 31.2
20/04:30am 19.8 21.1 18.5 92 0.8 W 9 13 5 7 1015.7 1015.6 31.2
20/04:00am 19.9 21.3 18.7 93 0.7 W 9 13 5 7 1015.4 1015.3 31.2
20/03:30am 20.2 21.7 19.0 93 0.8 W 9 13 5 7 1015.5 1015.4 31.2
20/03:00am 20.2 21.0 19.0 93 0.8 WNW 13 17 7 9 1015.2 1015.1 31.2
20/02:30am 20.2 22.0 19.5 96 0.4 WNW 9 13 5 7 1015.2 1015.1 31.2
20/02:00am 20.4 22.3 19.7 96 0.4 NW 9 11 5 6 1015.3 1015.2 31.2
20/01:30am 20.6 22.0 19.6 94 0.6 NW 11 13 6 7 1015.4 1015.3 31.2
20/01:00am 20.7 22.3 19.9 95 0.5 WNW 11 17 6 9 1015.7 1015.6 31.2
20/12:45am 20.7 22.3 20.0 96 0.4 NW 11 19 6 10 1015.8 1015.7 31.2
20/12:30am 20.0 22.2 19.2 95 0.5 WNW 6 9 3 5 1015.8 1015.7 31.2
20/12:25am 19.8 21.9 19.0 95 0.5 WNW 6 7 3 4 1015.7 1015.6 31.2
20/12:00am 20.4 24.0 19.7 96 0.4 CALM 0 0 0 0 1016.1 1016.0 31.2
 
Date/Time
EST
Temp
°C
App
Temp
°C
Dew
Point
°C
Rel
Hum
%
Delta-T
°C
Wind Press
QNH
hPa
Press
MSL
hPa
Rain since
9am
mm
Dir  Spd
km/h
Gust
km/h
Spd
kts
Gust
kts
19/11:30pm 19.9 22.0 18.9 94 0.6 W 6 7 3 4 1016.4 1016.3 31.2
19/11:00pm 20.5 22.7 19.7 95 0.5 WNW 7 13 4 7 1016.3 1016.2 31.2
19/10:30pm 20.3 22.9 19.3 94 0.6 NNW 4 7 2 4 1016.1 1016.0 31.2
19/10:28pm 20.3 22.9 19.3 94 0.6 NNW 4 6 2 3 1016.1 1016.0 31.2
19/10:00pm 20.4 22.7 19.4 94 0.6 NNE 6 11 3 6 1016.1 1016.0 31.2
19/09:30pm 20.4 22.0 19.2 93 0.8 NNE 9 13 5 7 1015.8 1015.7 31.2
19/09:00pm 20.4 21.8 19.6 95 0.5 NNE 11 19 6 10 1015.3 1015.2 31.2
19/08:30pm 20.0 21.7 19.3 96 0.4 NE 9 15 5 8 1015.3 1015.2 31.2
19/08:00pm 19.9 21.2 19.2 96 0.4 NE 11 20 6 11 1015.4 1015.3 31.2
19/07:45pm 20.2 22.1 19.7 97 0.3 ENE 9 15 5 8 1015.6 1015.5 31.0
19/07:36pm 20.2 22.4 19.7 97 0.3 S 7 11 4 6 1015.7 1015.6 30.2
19/07:32pm 20.1 21.5 19.6 97 0.3 SSE 11 24 6 13 1015.7 1015.6 30.0
19/07:30pm 20.0 21.0 19.5 97 0.3 SE 13 24 7 13 1015.6 1015.5 30.0
19/07:00pm 19.3 19.8 18.3 94 0.6 ESE 13 22 7 12 1015.8 1015.7 23.6
19/06:49pm 19.4 19.2 17.5 89 1.2 SSW 15 39 8 21 1015.5 1015.4 18.8
19/06:43pm 19.8 17.7 17.2 85 1.6 SW 24 39 13 21 1016.4 1016.3 4.4

Other formats

Comma delimited format used in spreadsheet applications
http://www.bom.gov.au/fwo/IDQ60801/IDQ60801.94567.axf

JavaScript Object Notation format (JSON) in row-major order
http://www.bom.gov.au/fwo/IDQ60801/IDQ60801.94567.json

Data quality

Most of these data are generated automatically and are frequently updated. Quality checks on data are not normally performed. It is possible for incorrect values to appear. Refer to information at About Latest Weather Observations and please check the disclaimer before using these data.